createdAt,value
2023-04-16T00:02:08.060Z,36.80
2023-04-16T00:04:35.708Z,37.00
2023-04-16T00:07:02.980Z,37.65
2023-04-16T00:09:29.967Z,36.88
2023-04-16T00:11:57.652Z,37.60
2023-04-16T00:14:24.759Z,37.28
2023-04-16T00:16:51.850Z,37.58
2023-04-16T00:19:18.937Z,36.15
2023-04-16T00:21:45.927Z,36.70
2023-04-16T00:24:12.971Z,36.53
2023-04-16T00:26:41.041Z,36.08
2023-04-16T00:29:08.501Z,37.17
2023-04-16T00:31:36.510Z,36.42
2023-04-16T00:34:03.809Z,35.75
2023-04-16T00:36:30.954Z,38.53
2023-04-16T00:38:58.041Z,37.30
2023-04-16T00:41:25.122Z,38.97
2023-04-16T00:43:52.550Z,38.85
2023-04-16T00:46:22.293Z,38.50
2023-04-16T00:48:51.720Z,38.08
2023-04-16T00:51:20.743Z,37.85
2023-04-16T00:53:48.229Z,39.28
2023-04-16T00:56:17.004Z,38.67
2023-04-16T00:58:45.145Z,37.42
2023-04-16T01:01:14.528Z,38.30
2023-04-16T01:03:47.593Z,37.80
2023-04-16T01:06:17.122Z,39.33
2023-04-16T01:08:45.096Z,37.70
2023-04-16T01:11:12.149Z,37.92
2023-04-16T01:13:39.716Z,37.05
2023-04-16T01:16:09.220Z,38.13
2023-04-16T01:18:37.070Z,37.90
2023-04-16T01:21:05.132Z,37.55
2023-04-16T01:23:32.468Z,37.53
2023-04-16T01:25:59.502Z,37.38
2023-04-16T01:28:26.781Z,37.65
2023-04-16T01:30:53.756Z,37.22
2023-04-16T01:33:52.838Z,37.05
2023-04-16T01:36:20.157Z,38.08
2023-04-16T01:38:47.227Z,37.33
2023-04-16T01:41:14.209Z,38.42
2023-04-16T01:43:42.503Z,37.88
2023-04-16T01:46:21.362Z,37.53
2023-04-16T01:48:48.772Z,38.53
2023-04-16T01:51:15.852Z,37.63
2023-04-16T01:53:42.888Z,37.88
2023-04-16T01:56:09.913Z,39.17
2023-04-16T01:58:37.065Z,38.60
2023-04-16T02:01:05.849Z,38.28
2023-04-16T02:03:33.610Z,38.38
2023-04-16T02:06:01.731Z,38.70
2023-04-16T02:08:29.302Z,38.72
2023-04-16T02:10:57.471Z,38.13
2023-04-16T02:13:26.177Z,38.30
2023-04-16T02:15:53.953Z,38.83
2023-04-16T02:18:35.181Z,37.30
2023-04-16T02:21:02.606Z,37.03
2023-04-16T02:23:29.686Z,37.35
2023-04-16T02:25:58.797Z,37.03
2023-04-16T02:28:25.914Z,37.40
2023-04-16T02:30:52.921Z,38.03
2023-04-16T02:33:21.251Z,37.95
2023-04-16T02:35:56.369Z,39.90
2023-04-16T02:38:23.387Z,37.97
2023-04-16T02:40:50.809Z,39.90
2023-04-16T02:43:17.773Z,39.83
2023-04-16T02:45:44.969Z,38.95
2023-04-16T02:48:12.140Z,40.20
2023-04-16T02:50:39.065Z,41.28
2023-04-16T02:53:07.849Z,40.97
2023-04-16T02:55:34.906Z,39.63
2023-04-16T02:58:02.067Z,36.63
2023-04-16T03:00:29.224Z,37.22
2023-04-16T03:02:56.568Z,37.03
2023-04-16T03:05:23.751Z,37.63
2023-04-16T03:07:56.542Z,39.35
2023-04-16T03:10:24.608Z,40.13
2023-04-16T03:12:51.627Z,37.88
2023-04-16T03:15:18.736Z,39.97
2023-04-16T03:17:46.088Z,39.60
2023-04-16T03:20:14.464Z,40.20
2023-04-16T03:22:41.935Z,41.40
2023-04-16T03:25:09.559Z,40.72
2023-04-16T03:27:36.614Z,41.42
2023-04-16T03:30:04.794Z,41.33
2023-04-16T03:32:34.165Z,39.53
2023-04-16T03:35:03.812Z,40.20
2023-04-16T03:37:31.941Z,41.55
2023-04-16T03:39:59.306Z,41.50
2023-04-16T03:42:27.088Z,40.03
2023-04-16T03:44:54.195Z,41.92
2023-04-16T03:47:22.785Z,43.08
2023-04-16T03:49:53.204Z,40.75
2023-04-16T03:52:20.245Z,41.30
2023-04-16T03:54:47.482Z,40.03
2023-04-16T03:57:24.094Z,38.42
2023-04-16T03:59:53.037Z,39.13
2023-04-16T04:02:20.643Z,38.67
2023-04-16T04:04:47.944Z,40.25
2023-04-16T04:07:16.591Z,39.88
2023-04-16T04:09:43.764Z,41.00
2023-04-16T04:12:10.805Z,40.70
2023-04-16T04:14:40.327Z,40.47
2023-04-16T04:17:08.948Z,40.53
2023-04-16T04:19:37.758Z,40.92
2023-04-16T04:22:06.393Z,41.05
2023-04-16T04:24:33.396Z,42.00
2023-04-16T04:27:01.766Z,41.83
2023-04-16T04:29:29.236Z,41.03
2023-04-16T04:31:56.429Z,41.75
2023-04-16T04:34:23.754Z,42.03
2023-04-16T04:36:51.067Z,41.90
2023-04-16T04:39:20.564Z,42.17
2023-04-16T04:41:49.069Z,42.10
2023-04-16T04:44:18.734Z,43.00
2023-04-16T04:46:45.849Z,40.90
2023-04-16T04:49:12.892Z,40.63
2023-04-16T04:51:39.998Z,39.05
2023-04-16T04:54:07.287Z,39.97
2023-04-16T04:56:34.402Z,40.97
2023-04-16T04:59:01.404Z,40.70
2023-04-16T05:01:28.800Z,39.35
2023-04-16T05:03:56.045Z,42.25
2023-04-16T05:06:23.144Z,39.75
2023-04-16T05:08:50.199Z,41.65
2023-04-16T05:11:17.256Z,39.60
2023-04-16T05:13:44.371Z,37.42
2023-04-16T05:16:11.639Z,38.55
2023-04-16T05:18:38.627Z,36.45
2023-04-16T05:21:05.764Z,38.10
2023-04-16T05:23:32.756Z,37.60
2023-04-16T05:25:59.725Z,36.33
2023-04-16T05:28:26.743Z,36.65
2023-04-16T05:30:53.761Z,36.88
2023-04-16T05:33:20.919Z,37.28
2023-04-16T05:35:48.005Z,35.08
2023-04-16T05:38:14.952Z,34.22
2023-04-16T05:40:41.925Z,35.58
2023-04-16T05:43:09.525Z,35.47
2023-04-16T05:45:40.977Z,34.30
2023-04-16T05:48:11.872Z,32.67
2023-04-16T05:50:38.928Z,33.13
2023-04-16T05:53:08.222Z,34.92
2023-04-16T05:55:38.693Z,33.92
2023-04-16T05:58:05.669Z,34.42
2023-04-16T06:00:33.265Z,35.35
2023-04-16T06:03:00.856Z,34.75
2023-04-16T06:05:28.753Z,34.40
2023-04-16T06:07:56.329Z,33.60
2023-04-16T06:10:23.508Z,33.92
2023-04-16T06:12:50.517Z,33.20
2023-04-16T06:15:17.587Z,33.35
2023-04-16T06:17:44.621Z,33.40
2023-04-16T06:20:12.606Z,34.17
2023-04-16T06:22:39.669Z,33.67
2023-04-16T06:25:07.343Z,32.40
2023-04-16T06:27:34.404Z,32.92
2023-04-16T06:30:01.379Z,33.20
2023-04-16T06:32:28.469Z,32.33
2023-04-16T06:34:56.393Z,32.65
2023-04-16T06:37:23.299Z,32.25
2023-04-16T06:39:50.290Z,32.17
2023-04-16T06:42:17.932Z,31.73
2023-04-16T06:44:45.105Z,31.10
2023-04-16T06:47:12.112Z,31.42
2023-04-16T06:49:39.908Z,31.35
2023-04-16T06:52:07.240Z,31.75
2023-04-16T06:54:34.248Z,30.60
2023-04-16T06:57:01.325Z,31.30
2023-04-16T06:59:28.336Z,30.92
2023-04-16T07:01:55.434Z,30.77
2023-04-16T07:04:23.309Z,29.85
2023-04-16T07:06:50.320Z,30.48
2023-04-16T07:09:20.101Z,31.33
2023-04-16T07:11:47.290Z,30.13
2023-04-16T07:14:15.175Z,29.83
2023-04-16T07:16:42.230Z,27.85
2023-04-16T07:19:09.525Z,27.98
2023-04-16T07:21:36.757Z,28.80
2023-04-16T07:24:03.905Z,28.35
2023-04-16T07:26:31.132Z,29.23
2023-04-16T07:28:58.140Z,28.77
2023-04-16T07:31:25.208Z,27.95
2023-04-16T07:33:52.216Z,27.60
2023-04-16T07:36:19.293Z,27.48
2023-04-16T07:38:46.347Z,27.67
2023-04-16T07:41:13.696Z,26.05
2023-04-16T07:43:40.786Z,26.63
2023-04-16T07:46:07.980Z,27.35
2023-04-16T07:48:35.035Z,26.25
2023-04-16T07:51:02.234Z,26.73
2023-04-16T07:53:29.364Z,25.95
2023-04-16T07:55:56.415Z,25.98
2023-04-16T07:58:23.408Z,25.33
2023-04-16T08:00:51.382Z,26.00
2023-04-16T08:03:18.495Z,26.35
2023-04-16T08:05:45.853Z,24.85
2023-04-16T08:08:12.886Z,25.17
2023-04-16T08:10:40.039Z,24.67
2023-04-16T08:13:07.098Z,24.48
2023-04-16T08:15:34.142Z,24.23
2023-04-16T08:18:01.339Z,23.42
2023-04-16T08:20:28.431Z,23.63
2023-04-16T08:22:55.438Z,23.80
2023-04-16T08:25:24.650Z,23.80
2023-04-16T08:27:51.750Z,22.77
2023-04-16T08:30:18.989Z,23.67
2023-04-16T08:32:48.012Z,23.88
2023-04-16T08:35:16.657Z,23.10
2023-04-16T08:37:43.573Z,22.70
2023-04-16T08:40:11.233Z,22.52
2023-04-16T08:42:46.163Z,23.08
2023-04-16T08:45:19.692Z,22.05
2023-04-16T08:47:49.755Z,23.55
2023-04-16T08:50:22.848Z,22.88
2023-04-16T08:53:15.568Z,23.10
2023-04-16T08:55:50.429Z,22.05
2023-04-16T08:58:22.835Z,22.02
2023-04-16T09:00:50.497Z,22.13
2023-04-16T09:03:20.142Z,21.45
2023-04-16T09:05:48.235Z,20.83
2023-04-16T09:08:15.905Z,21.58
2023-04-16T09:10:43.714Z,21.52
2023-04-16T09:13:11.687Z,21.15
2023-04-16T09:15:40.664Z,21.05
2023-04-16T09:18:08.701Z,21.08
2023-04-16T09:20:36.041Z,22.23
2023-04-16T09:23:03.056Z,20.33
2023-04-16T09:25:38.573Z,20.75
2023-04-16T09:28:05.929Z,20.92
2023-04-16T09:30:34.835Z,20.60
2023-04-16T09:33:24.756Z,20.45
2023-04-16T09:35:53.209Z,21.17
2023-04-16T09:38:21.135Z,20.00
2023-04-16T09:40:48.248Z,20.05
2023-04-16T09:43:17.675Z,19.42
2023-04-16T09:45:53.158Z,19.67
2023-04-16T09:48:33.959Z,19.23
2023-04-16T09:51:01.961Z,18.23
2023-04-16T09:53:31.305Z,17.70
2023-04-16T09:56:06.129Z,18.52
2023-04-16T09:58:36.260Z,18.20
2023-04-16T10:01:03.767Z,17.38
2023-04-16T10:03:35.688Z,18.15
2023-04-16T10:06:21.977Z,16.48
2023-04-16T10:08:50.591Z,16.75
2023-04-16T10:11:19.792Z,16.42
2023-04-16T10:13:46.955Z,16.45
2023-04-16T10:16:14.206Z,17.27
2023-04-16T10:18:43.955Z,16.40
2023-04-16T10:21:12.724Z,16.65
2023-04-16T10:23:41.133Z,16.05
2023-04-16T10:26:08.433Z,16.17
2023-04-16T10:28:36.278Z,16.33
2023-04-16T10:31:09.194Z,15.98
2023-04-16T10:33:40.445Z,15.52
2023-04-16T10:36:14.377Z,15.82
2023-04-16T10:38:52.776Z,15.90
2023-04-16T10:41:22.956Z,16.02
2023-04-16T10:43:51.078Z,15.38
2023-04-16T10:46:33.259Z,15.75
2023-04-16T10:49:20.531Z,15.43
2023-04-16T10:52:02.180Z,15.20
2023-04-16T10:54:35.338Z,14.95
2023-04-16T10:57:08.859Z,14.52
2023-04-16T10:59:38.459Z,14.15
2023-04-16T11:02:19.417Z,15.20
2023-04-16T11:04:49.107Z,14.05
2023-04-16T11:07:21.483Z,14.13
2023-04-16T11:10:17.816Z,14.52
2023-04-16T11:12:47.375Z,14.23
2023-04-16T11:15:16.791Z,14.45
2023-04-16T11:17:45.318Z,14.63
2023-04-16T11:20:21.699Z,13.82
2023-04-16T11:22:53.826Z,14.02
2023-04-16T11:25:22.964Z,14.00
2023-04-16T11:27:52.058Z,14.15
2023-04-16T11:30:28.738Z,14.57
2023-04-16T11:32:56.142Z,14.50
2023-04-16T11:35:23.431Z,15.02
2023-04-16T11:37:50.392Z,14.70
2023-04-16T11:40:17.450Z,14.40
2023-04-16T11:42:44.559Z,13.80
2023-04-16T11:45:12.620Z,14.38
2023-04-16T11:47:57.191Z,13.07
2023-04-16T11:50:27.627Z,13.68
2023-04-16T11:52:57.697Z,13.60
2023-04-16T11:55:25.426Z,13.65
2023-04-16T11:57:52.777Z,14.00
2023-04-16T12:00:24.584Z,13.80
2023-04-16T12:02:55.052Z,13.77
2023-04-16T12:05:32.269Z,13.13
2023-04-16T12:08:01.839Z,13.38
2023-04-16T12:10:30.040Z,12.70
2023-04-16T12:13:17.307Z,13.10
2023-04-16T12:15:49.252Z,13.63
2023-04-16T12:18:22.918Z,13.05
2023-04-16T12:20:53.637Z,13.32
2023-04-16T12:23:30.141Z,13.23
2023-04-16T12:26:02.443Z,12.18
2023-04-16T12:28:36.604Z,12.95
2023-04-16T12:31:04.482Z,13.38
2023-04-16T12:33:31.972Z,13.73
2023-04-16T12:35:59.096Z,13.25
2023-04-16T12:38:27.032Z,13.70
2023-04-16T12:40:56.947Z,13.13
2023-04-16T12:43:25.159Z,13.38
2023-04-16T12:45:52.411Z,13.13
2023-04-16T12:48:19.493Z,12.95
2023-04-16T12:50:46.519Z,13.18
2023-04-16T12:53:13.539Z,13.15
2023-04-16T12:55:40.686Z,13.00
2023-04-16T12:58:09.917Z,13.10
2023-04-16T13:00:39.884Z,12.77
2023-04-16T13:03:06.949Z,13.25
2023-04-16T13:05:34.506Z,12.55
2023-04-16T13:08:02.139Z,12.52
2023-04-16T13:10:29.193Z,12.93
2023-04-16T13:12:56.431Z,13.38
2023-04-16T13:15:23.455Z,13.88
2023-04-16T13:17:50.645Z,13.43
2023-04-16T13:20:17.714Z,13.70
2023-04-16T13:22:44.724Z,13.20
2023-04-16T13:25:11.739Z,13.32
2023-04-16T13:27:38.873Z,13.20
2023-04-16T13:30:07.718Z,13.43
2023-04-16T13:32:34.901Z,12.68
2023-04-16T13:35:01.890Z,13.13
2023-04-16T13:37:28.823Z,14.18
2023-04-16T13:39:56.554Z,12.60
2023-04-16T13:42:23.794Z,12.90
2023-04-16T13:44:54.042Z,13.25
2023-04-16T13:47:21.291Z,13.35
2023-04-16T13:49:48.378Z,13.48
2023-04-16T13:52:15.466Z,13.55
2023-04-16T13:54:42.694Z,13.82
2023-04-16T13:57:19.847Z,13.40
2023-04-16T13:59:46.995Z,13.38
2023-04-16T14:02:14.263Z,13.68
2023-04-16T14:04:41.987Z,14.00
2023-04-16T14:07:09.079Z,13.95
2023-04-16T14:09:36.543Z,14.02
2023-04-16T14:12:03.854Z,14.63
2023-04-16T14:14:31.141Z,13.73
2023-04-16T14:16:59.512Z,14.50
2023-04-16T14:19:26.473Z,13.90
2023-04-16T14:21:54.371Z,13.90
2023-04-16T14:24:21.355Z,14.63
2023-04-16T14:26:48.448Z,13.63
2023-04-16T14:29:15.555Z,13.93
2023-04-16T14:31:42.588Z,14.00
2023-04-16T14:34:09.625Z,13.98
2023-04-16T14:36:36.989Z,15.18
2023-04-16T14:39:04.722Z,14.07
2023-04-16T14:41:31.756Z,15.30
2023-04-16T14:43:59.759Z,14.95
2023-04-16T14:46:27.102Z,14.55
2023-04-16T14:48:54.105Z,14.55
2023-04-16T14:51:21.109Z,14.48
2023-04-16T14:53:48.047Z,15.07
2023-04-16T14:56:15.062Z,15.20
2023-04-16T14:58:43.269Z,14.40
2023-04-16T15:01:10.457Z,14.35
2023-04-16T15:03:37.775Z,14.25
2023-04-16T15:06:05.872Z,14.18
2023-04-16T15:08:32.981Z,14.45
2023-04-16T15:10:59.997Z,13.55
2023-04-16T15:13:33.575Z,13.95
2023-04-16T15:16:07.469Z,15.15
2023-04-16T15:18:34.705Z,14.70
2023-04-16T15:21:01.941Z,14.68
2023-04-16T15:23:28.947Z,13.98
2023-04-16T15:25:55.921Z,14.20
2023-04-16T15:28:23.343Z,14.18
2023-04-16T15:30:52.072Z,14.00
2023-04-16T15:33:21.670Z,13.70
2023-04-16T15:35:48.758Z,14.82
2023-04-16T15:38:15.881Z,13.93
2023-04-16T15:40:42.923Z,13.93
2023-04-16T15:43:10.035Z,13.40
2023-04-16T15:45:37.503Z,13.98
2023-04-16T15:48:05.985Z,14.35
2023-04-16T15:50:33.587Z,13.93
2023-04-16T15:53:00.757Z,13.35
2023-04-16T15:55:27.787Z,14.02
2023-04-16T15:57:54.755Z,13.63
2023-04-16T16:00:21.818Z,14.27
2023-04-16T16:02:48.945Z,12.95
2023-04-16T16:05:16.812Z,14.25
2023-04-16T16:07:44.288Z,13.80
2023-04-16T16:10:13.112Z,13.93
2023-04-16T16:12:41.334Z,13.27
2023-04-16T16:15:10.957Z,13.68
2023-04-16T16:17:38.943Z,14.10
2023-04-16T16:20:10.239Z,13.13
2023-04-16T16:22:38.351Z,12.02
2023-04-16T16:25:07.037Z,12.77
2023-04-16T16:27:34.197Z,13.45
2023-04-16T16:30:01.490Z,13.30
2023-04-16T16:32:28.651Z,13.27
2023-04-16T16:34:56.043Z,12.55
2023-04-16T16:37:23.066Z,12.80
2023-04-16T16:39:50.498Z,13.35
2023-04-16T16:42:18.819Z,14.25
2023-04-16T16:44:47.437Z,13.02
2023-04-16T16:47:14.590Z,13.38
2023-04-16T16:49:41.678Z,13.82
2023-04-16T16:52:08.873Z,13.40
2023-04-16T16:54:35.816Z,13.95
2023-04-16T16:57:03.327Z,13.73
2023-04-16T16:59:30.518Z,15.13
2023-04-16T17:01:57.652Z,15.65
2023-04-16T17:04:24.735Z,15.98
2023-04-16T17:06:51.850Z,16.63
2023-04-16T17:09:19.157Z,15.82
2023-04-16T17:11:46.307Z,16.48
2023-04-16T17:14:13.292Z,16.45
2023-04-16T17:16:40.428Z,17.25
2023-04-16T17:19:07.462Z,17.63
2023-04-16T17:21:34.711Z,17.52
2023-04-16T17:24:01.810Z,17.10
2023-04-16T17:26:29.066Z,17.75
2023-04-16T17:28:57.829Z,17.73
2023-04-16T17:31:27.313Z,18.05
2023-04-16T17:33:54.420Z,17.80
2023-04-16T17:36:23.017Z,18.27
2023-04-16T17:38:50.591Z,18.33
2023-04-16T17:41:17.611Z,18.63
2023-04-16T17:43:49.532Z,19.10
2023-04-16T17:46:16.985Z,19.88
2023-04-16T17:48:44.215Z,20.77
2023-04-16T17:51:12.205Z,20.00
2023-04-16T17:53:39.314Z,21.10
2023-04-16T17:56:07.151Z,21.77
2023-04-16T17:58:35.343Z,22.05
2023-04-16T18:01:03.766Z,22.40
2023-04-16T18:03:32.895Z,22.20
2023-04-16T18:06:00.728Z,22.15
2023-04-16T18:08:28.701Z,23.27
2023-04-16T18:10:56.798Z,22.88
2023-04-16T18:13:24.592Z,23.38
2023-04-16T18:15:52.917Z,23.85
2023-04-16T18:18:21.260Z,23.33
2023-04-16T18:20:48.238Z,23.88
2023-04-16T18:23:15.332Z,24.27
2023-04-16T18:25:42.530Z,23.77
2023-04-16T18:28:09.647Z,24.08
2023-04-16T18:30:40.053Z,22.88
2023-04-16T18:33:34.439Z,25.35
2023-04-16T18:35:54.575Z,25.65
2023-04-16T18:38:21.526Z,25.02
2023-04-16T18:40:49.693Z,24.08
2023-04-16T18:43:16.950Z,24.40
2023-04-16T18:45:44.127Z,24.20
2023-04-16T18:48:11.430Z,24.55
2023-04-16T18:50:38.407Z,24.08
2023-04-16T18:53:05.369Z,24.75
2023-04-16T18:55:32.333Z,24.45
2023-04-16T18:57:59.316Z,26.45
2023-04-16T19:00:26.614Z,25.92
2023-04-16T19:02:53.840Z,24.95
2023-04-16T19:05:21.613Z,24.58
2023-04-16T19:07:48.791Z,24.65
2023-04-16T19:10:15.769Z,25.13
2023-04-16T19:12:42.955Z,25.40
2023-04-16T19:15:10.584Z,25.98
2023-04-16T19:17:39.577Z,26.13
2023-04-16T19:20:11.191Z,26.02
2023-04-16T19:22:38.630Z,27.13
2023-04-16T19:25:07.221Z,26.60
2023-04-16T19:27:34.875Z,26.55
2023-04-16T19:30:03.508Z,26.65
2023-04-16T19:32:31.035Z,25.92
2023-04-16T19:34:58.131Z,26.00
2023-04-16T19:37:25.239Z,26.30
2023-04-16T19:39:52.627Z,26.50
2023-04-16T19:42:19.718Z,26.42
2023-04-16T19:44:46.702Z,26.88
2023-04-16T19:47:13.927Z,26.25
2023-04-16T19:49:43.576Z,27.23
2023-04-16T19:52:10.658Z,27.02
2023-04-16T19:54:37.758Z,27.58
2023-04-16T19:57:04.828Z,26.20
2023-04-16T19:59:32.235Z,26.27
2023-04-16T20:01:59.359Z,26.75
2023-04-16T20:04:26.694Z,26.00
2023-04-16T20:06:53.817Z,26.23
2023-04-16T20:09:21.090Z,26.58
2023-04-16T20:11:48.233Z,27.00
2023-04-16T20:14:15.267Z,28.38
2023-04-16T20:16:43.623Z,26.88
2023-04-16T20:19:17.118Z,27.58
2023-04-16T20:21:45.511Z,26.23
2023-04-16T20:24:12.723Z,24.50
2023-04-16T20:26:39.768Z,25.50
2023-04-16T20:29:06.750Z,22.55
2023-04-16T20:31:33.825Z,23.80
2023-04-16T20:34:01.005Z,23.38
2023-04-16T20:36:28.790Z,22.42
2023-04-16T20:38:56.007Z,22.40
2023-04-16T20:41:25.157Z,21.83
2023-04-16T20:43:52.708Z,23.38
2023-04-16T20:46:24.182Z,21.65
2023-04-16T20:48:51.871Z,22.00
2023-04-16T20:51:19.036Z,21.58
2023-04-16T20:53:46.131Z,21.17
2023-04-16T20:56:14.924Z,20.90
2023-04-16T20:58:42.615Z,21.25
2023-04-16T21:01:09.884Z,21.73
2023-04-16T21:03:37.551Z,21.67
2023-04-16T21:06:04.781Z,22.08
2023-04-16T21:08:32.056Z,21.27
2023-04-16T21:10:59.224Z,21.33
2023-04-16T21:13:26.406Z,21.48
2023-04-16T21:15:53.724Z,21.30
2023-04-16T21:18:20.760Z,21.92
2023-04-16T21:20:47.787Z,21.42
2023-04-16T21:23:14.985Z,21.27
2023-04-16T21:25:42.125Z,21.52
2023-04-16T21:28:09.115Z,22.13
2023-04-16T21:30:36.789Z,21.90
2023-04-16T21:33:04.041Z,22.88
2023-04-16T21:35:33.168Z,23.13
2023-04-16T21:38:00.230Z,22.83
2023-04-16T21:40:27.334Z,22.38
2023-04-16T21:42:55.201Z,21.92
2023-04-16T21:45:22.422Z,23.55
2023-04-16T21:47:49.612Z,24.23
2023-04-16T21:50:16.798Z,23.85
2023-04-16T21:52:46.665Z,24.55
2023-04-16T21:55:16.938Z,23.80
2023-04-16T21:57:43.920Z,24.08
2023-04-16T22:00:14.940Z,25.60
2023-04-16T22:02:42.700Z,25.10
2023-04-16T22:05:11.296Z,25.45
2023-04-16T22:07:38.574Z,26.05
2023-04-16T22:10:06.780Z,26.00
2023-04-16T22:12:37.664Z,25.50
2023-04-16T22:15:07.154Z,26.85
2023-04-16T22:17:34.768Z,27.45
2023-04-16T22:20:04.751Z,27.15
2023-04-16T22:22:31.859Z,27.58
2023-04-16T22:24:59.120Z,27.67
2023-04-16T22:27:26.402Z,27.75
2023-04-16T22:29:53.519Z,28.15
2023-04-16T22:32:20.854Z,27.63
2023-04-16T22:34:48.017Z,26.05
2023-04-16T22:37:14.933Z,27.67
2023-04-16T22:39:42.042Z,26.88
2023-04-16T22:42:09.136Z,27.20
2023-04-16T22:44:39.084Z,27.52
2023-04-16T22:47:06.095Z,27.77
2023-04-16T22:49:33.199Z,28.77
2023-04-16T22:52:00.864Z,26.95
2023-04-16T22:54:29.750Z,28.02
2023-04-16T22:56:57.524Z,30.25
2023-04-16T22:59:25.007Z,30.95
2023-04-16T23:01:52.503Z,31.55
2023-04-16T23:04:19.938Z,29.83
2023-04-16T23:06:47.015Z,30.73
2023-04-16T23:09:14.322Z,30.63
2023-04-16T23:11:41.636Z,30.65
2023-04-16T23:14:09.662Z,31.55
2023-04-16T23:16:36.582Z,32.17
2023-04-16T23:19:03.822Z,31.73
2023-04-16T23:21:31.257Z,32.50
2023-04-16T23:23:59.077Z,33.05
2023-04-16T23:26:26.055Z,33.10
2023-04-16T23:28:53.076Z,34.17
2023-04-16T23:31:20.201Z,35.08
2023-04-16T23:33:47.150Z,34.00
2023-04-16T23:36:14.129Z,35.20
2023-04-16T23:38:41.224Z,35.30
2023-04-16T23:41:08.190Z,34.20
2023-04-16T23:43:35.855Z,33.60
2023-04-16T23:46:03.230Z,33.58
2023-04-16T23:48:30.533Z,34.00
2023-04-16T23:50:57.586Z,31.95
2023-04-16T23:53:24.761Z,33.00
2023-04-16T23:55:52.002Z,32.05
2023-04-16T23:58:19.084Z,32.63
